createdAt,value
2023-04-25T00:00:18.878Z,61.76
2023-04-25T00:02:45.763Z,62.04
2023-04-25T00:05:13.120Z,62.20
2023-04-25T00:07:39.998Z,62.13
2023-04-25T00:10:07.689Z,62.41
2023-04-25T00:12:34.922Z,62.47
2023-04-25T00:15:01.898Z,62.43
2023-04-25T00:17:29.410Z,62.34
2023-04-25T00:19:56.913Z,62.77
2023-04-25T00:22:23.521Z,62.93
2023-04-25T00:24:50.493Z,62.98
2023-04-25T00:27:17.372Z,63.06
2023-04-25T00:29:43.965Z,63.14
2023-04-25T00:32:11.019Z,63.38
2023-04-25T00:34:37.710Z,63.53
2023-04-25T00:37:04.414Z,63.73
2023-04-25T00:39:31.455Z,63.33
2023-04-25T00:41:58.941Z,63.60
2023-04-25T00:44:26.186Z,63.69
2023-04-25T00:46:55.316Z,63.87
2023-04-25T00:49:22.174Z,63.69
2023-04-25T00:51:49.270Z,63.95
2023-04-25T00:54:16.756Z,63.89
2023-04-25T00:56:43.949Z,63.97
2023-04-25T00:59:10.899Z,64.37
2023-04-25T01:01:39.219Z,64.29
2023-04-25T01:04:06.240Z,64.43
2023-04-25T01:06:33.220Z,64.33
2023-04-25T01:09:00.696Z,64.44
2023-04-25T01:11:27.507Z,64.51
2023-04-25T01:13:54.202Z,64.48
2023-04-25T01:16:21.523Z,64.41
2023-04-25T01:18:48.908Z,64.51
2023-04-25T01:21:15.884Z,64.87
2023-04-25T01:23:43.763Z,64.72
2023-04-25T01:26:12.465Z,64.93
2023-04-25T01:28:46.680Z,64.99
2023-04-25T01:31:13.225Z,64.80
2023-04-25T01:33:40.256Z,64.68
2023-04-25T01:36:07.389Z,64.90
2023-04-25T01:38:34.336Z,65.12
2023-04-25T01:41:01.064Z,65.31
2023-04-25T01:43:27.983Z,65.49
2023-04-25T01:45:55.378Z,65.80
2023-04-25T01:48:22.120Z,65.75
2023-04-25T01:50:48.948Z,65.76
2023-04-25T01:53:15.885Z,66.01
2023-04-25T01:55:42.685Z,65.93
2023-04-25T01:58:11.023Z,65.97
2023-04-25T02:00:41.780Z,65.96
2023-04-25T02:03:09.598Z,66.16
2023-04-25T02:05:40.475Z,66.32
2023-04-25T02:08:09.297Z,66.40
2023-04-25T02:10:36.525Z,66.46
2023-04-25T02:13:03.929Z,66.53
2023-04-25T02:15:30.896Z,66.52
2023-04-25T02:17:57.825Z,66.65
2023-04-25T02:20:26.085Z,66.66
2023-04-25T02:22:52.846Z,66.81
2023-04-25T02:25:21.061Z,66.83
2023-04-25T02:27:49.319Z,66.84
2023-04-25T02:30:16.370Z,66.89
2023-04-25T02:32:43.204Z,67.04
2023-04-25T02:35:10.990Z,67.41
2023-04-25T02:37:38.956Z,67.28
2023-04-25T02:40:06.751Z,67.56
2023-04-25T02:42:33.770Z,67.76
2023-04-25T02:45:00.440Z,67.85
2023-04-25T02:47:27.346Z,67.89
2023-04-25T02:49:54.218Z,67.86
2023-04-25T02:52:22.245Z,67.92
2023-04-25T02:54:48.861Z,68.09
2023-04-25T02:57:15.966Z,68.29
2023-04-25T02:59:42.566Z,68.52
2023-04-25T03:02:09.294Z,68.60
2023-04-25T03:04:36.287Z,68.72
2023-04-25T03:07:03.514Z,68.97
2023-04-25T03:09:30.095Z,69.15
2023-04-25T03:11:56.864Z,69.19
2023-04-25T03:14:23.474Z,69.44
2023-04-25T03:16:50.171Z,69.43
2023-04-25T03:19:19.872Z,69.63
2023-04-25T03:21:46.559Z,69.57
2023-04-25T03:24:13.482Z,69.78
2023-04-25T03:26:40.554Z,69.96
2023-04-25T03:29:07.271Z,70.22
2023-04-25T03:31:33.965Z,70.33
2023-04-25T03:34:01.339Z,70.43
2023-04-25T03:36:28.045Z,70.52
2023-04-25T03:38:54.743Z,70.82
2023-04-25T03:41:22.164Z,71.04
2023-04-25T03:43:49.062Z,71.27
2023-04-25T03:46:15.896Z,71.27
2023-04-25T03:48:46.441Z,71.19
2023-04-25T03:51:13.058Z,71.29
2023-04-25T03:53:39.687Z,71.37
2023-04-25T03:56:06.910Z,71.41
2023-04-25T03:58:33.522Z,71.42
2023-04-25T04:01:00.356Z,71.56
2023-04-25T04:03:27.818Z,71.46
2023-04-25T04:05:54.839Z,71.58
2023-04-25T04:08:21.600Z,71.58
2023-04-25T04:10:48.526Z,71.45
2023-04-25T04:13:15.342Z,71.44
2023-04-25T04:15:42.123Z,71.50
2023-04-25T04:18:09.092Z,71.55
2023-04-25T04:20:35.938Z,71.64
2023-04-25T04:23:02.614Z,71.76
2023-04-25T04:25:29.965Z,71.72
2023-04-25T04:27:56.662Z,71.62
2023-04-25T04:30:30.792Z,71.98
2023-04-25T04:32:57.613Z,71.68
2023-04-25T04:35:25.836Z,71.75
2023-04-25T04:37:52.636Z,71.62
2023-04-25T04:40:19.664Z,71.88
2023-04-25T04:42:47.665Z,71.98
2023-04-25T04:45:14.742Z,71.92
2023-04-25T04:47:41.709Z,72.02
2023-04-25T04:50:10.329Z,72.18
2023-04-25T04:52:38.078Z,72.25
2023-04-25T04:55:06.538Z,72.13
2023-04-25T04:57:34.085Z,72.06
2023-04-25T05:00:00.961Z,72.16
2023-04-25T05:02:28.452Z,72.18
2023-04-25T05:04:55.625Z,72.00
2023-04-25T05:07:22.666Z,72.04
2023-04-25T05:09:51.155Z,72.11
2023-04-25T05:12:17.792Z,71.96
2023-04-25T05:14:44.776Z,72.01
2023-04-25T05:17:11.807Z,72.03
2023-04-25T05:19:39.033Z,72.07
2023-04-25T05:22:06.202Z,72.12
2023-04-25T05:24:32.816Z,72.16
2023-04-25T05:26:59.494Z,72.02
2023-04-25T05:29:26.448Z,72.18
2023-04-25T05:31:54.130Z,72.15
2023-04-25T05:34:20.938Z,72.23
2023-04-25T05:36:49.575Z,72.06
2023-04-25T05:39:19.346Z,72.13
2023-04-25T05:41:46.036Z,72.07
2023-04-25T05:44:13.036Z,72.15
2023-04-25T05:46:40.071Z,72.11
2023-04-25T05:49:06.804Z,72.12
2023-04-25T05:51:33.749Z,72.23
2023-04-25T05:54:00.704Z,72.17
2023-04-25T05:56:27.410Z,72.26
2023-04-25T05:58:54.622Z,72.17
2023-04-25T06:01:22.930Z,71.98
2023-04-25T06:03:50.084Z,71.86
2023-04-25T06:06:17.497Z,71.78
2023-04-25T06:08:48.413Z,71.50
2023-04-25T06:11:15.085Z,71.58
2023-04-25T06:13:41.950Z,71.33
2023-04-25T06:16:08.838Z,71.25
2023-04-25T06:18:35.802Z,71.02
2023-04-25T06:21:02.741Z,70.73
2023-04-25T06:23:29.578Z,70.57
2023-04-25T06:25:56.258Z,70.31
2023-04-25T06:28:23.273Z,70.19
2023-04-25T06:30:50.030Z,70.21
2023-04-25T06:33:16.624Z,69.81
2023-04-25T06:35:43.616Z,69.49
2023-04-25T06:38:10.384Z,69.13
2023-04-25T06:40:37.032Z,68.81
2023-04-25T06:43:03.893Z,68.71
2023-04-25T06:45:30.889Z,68.30
2023-04-25T06:47:57.584Z,68.34
2023-04-25T06:50:24.346Z,68.13
2023-04-25T06:52:51.359Z,67.84
2023-04-25T06:55:18.068Z,67.27
2023-04-25T06:57:45.108Z,66.58
2023-04-25T07:00:12.440Z,66.24
2023-04-25T07:02:39.269Z,65.86
2023-04-25T07:05:06.739Z,65.51
2023-04-25T07:07:33.468Z,65.30
2023-04-25T07:10:00.156Z,64.83
2023-04-25T07:12:26.898Z,64.58
2023-04-25T07:14:53.597Z,64.10
2023-04-25T07:17:20.246Z,63.73
2023-04-25T07:19:47.131Z,63.52
2023-04-25T07:22:13.922Z,63.11
2023-04-25T07:24:40.904Z,63.00
2023-04-25T07:27:07.847Z,62.28
2023-04-25T07:29:37.753Z,62.20
2023-04-25T07:32:04.924Z,61.95
2023-04-25T07:34:31.981Z,61.45
2023-04-25T07:37:00.306Z,61.31
2023-04-25T07:39:27.442Z,61.18
2023-04-25T07:41:55.353Z,61.19
2023-04-25T07:44:22.527Z,60.85
2023-04-25T07:46:49.262Z,60.48
2023-04-25T07:49:16.678Z,59.71
2023-04-25T07:51:44.543Z,59.45
2023-04-25T07:54:15.085Z,59.48
2023-04-25T07:56:52.167Z,59.38
2023-04-25T07:59:20.710Z,59.40
2023-04-25T08:01:47.814Z,59.11
2023-04-25T08:07:32.594Z,58.80
2023-04-25T08:09:59.254Z,58.30
2023-04-25T08:12:26.030Z,57.85
2023-04-25T08:14:52.765Z,57.23
2023-04-25T08:17:19.403Z,56.77
2023-04-25T08:19:46.119Z,56.44
2023-04-25T08:22:13.772Z,55.80
2023-04-25T08:24:40.518Z,55.67
2023-04-25T08:27:08.741Z,55.76
2023-04-25T08:29:36.151Z,55.70
2023-04-25T08:32:02.766Z,55.18
2023-04-25T08:34:29.386Z,54.49
2023-04-25T08:36:56.348Z,54.27
2023-04-25T08:39:23.057Z,53.56
2023-04-25T08:41:49.895Z,53.12
2023-04-25T08:44:17.948Z,52.32
2023-04-25T08:46:50.877Z,52.18
2023-04-25T08:49:20.065Z,50.87
2023-04-25T08:51:48.330Z,50.20
2023-04-25T08:54:30.210Z,49.61
2023-04-25T08:57:05.756Z,48.92
2023-04-25T08:59:33.452Z,49.05
2023-04-25T09:02:02.160Z,48.35
2023-04-25T09:04:31.253Z,47.67
2023-04-25T09:06:58.036Z,47.37
2023-04-25T09:09:25.460Z,47.22
2023-04-25T09:11:56.017Z,46.57
2023-04-25T09:14:26.163Z,46.35
2023-04-25T09:17:00.589Z,46.45
2023-04-25T09:19:39.836Z,46.68
2023-04-25T09:22:08.579Z,46.47
2023-04-25T09:24:41.000Z,46.72
2023-04-25T09:27:10.071Z,46.19
2023-04-25T09:29:38.879Z,46.48
2023-04-25T09:32:19.983Z,46.83
2023-04-25T09:34:52.046Z,46.25
2023-04-25T09:37:37.074Z,46.36
2023-04-25T09:40:08.424Z,45.94
2023-04-25T09:42:35.754Z,46.00
2023-04-25T09:45:04.880Z,46.45
2023-04-25T09:47:31.981Z,46.19
2023-04-25T09:49:59.482Z,46.10
2023-04-25T09:52:26.797Z,46.44
2023-04-25T09:54:54.113Z,46.41
2023-04-25T09:57:22.316Z,46.06
2023-04-25T09:59:51.148Z,46.37
2023-04-25T10:02:21.397Z,46.18
2023-04-25T10:04:54.007Z,46.09
2023-04-25T10:07:22.465Z,45.88
2023-04-25T10:09:51.454Z,45.48
2023-04-25T10:12:18.232Z,45.85
2023-04-25T10:14:46.878Z,45.65
2023-04-25T10:17:13.821Z,45.54
2023-04-25T10:19:40.530Z,45.51
2023-04-25T10:22:19.751Z,46.18
2023-04-25T10:24:47.755Z,46.06
2023-04-25T10:27:14.668Z,45.22
2023-04-25T10:29:44.428Z,44.84
2023-04-25T10:32:11.419Z,44.35
2023-04-25T10:34:48.290Z,44.63
2023-04-25T10:37:15.287Z,44.46
2023-04-25T10:39:43.453Z,43.94
2023-04-25T10:42:10.323Z,43.84
2023-04-25T10:44:39.192Z,44.06
2023-04-25T10:47:08.306Z,43.89
2023-04-25T10:49:42.507Z,44.02
2023-04-25T10:52:12.813Z,44.21
2023-04-25T10:54:59.184Z,43.93
2023-04-25T10:57:39.879Z,43.76
2023-04-25T11:00:10.795Z,43.45
2023-04-25T11:02:54.622Z,43.08
2023-04-25T11:05:54.959Z,42.72
2023-04-25T11:08:48.815Z,42.16
2023-04-25T11:11:17.398Z,41.84
2023-04-25T11:13:48.477Z,41.77
2023-04-25T11:18:48.854Z,41.40
2023-04-25T11:21:15.806Z,41.10
2023-04-25T11:23:48.896Z,42.13
2023-04-25T11:26:16.362Z,42.22
2023-04-25T11:28:46.318Z,42.36
2023-04-25T11:31:12.997Z,41.73
2023-04-25T11:33:41.790Z,40.99
2023-04-25T11:36:08.662Z,40.97
2023-04-25T11:38:35.659Z,40.71
2023-04-25T11:41:02.772Z,41.11
2023-04-25T11:43:29.477Z,41.42
2023-04-25T11:45:56.657Z,41.57
2023-04-25T11:48:25.883Z,41.40
2023-04-25T11:50:54.595Z,41.15
2023-04-25T11:53:21.507Z,40.96
2023-04-25T11:55:48.947Z,41.36
2023-04-25T11:58:15.577Z,41.52
2023-04-25T12:00:50.615Z,41.67
2023-04-25T12:03:19.777Z,42.29
2023-04-25T12:05:47.623Z,42.33
2023-04-25T12:08:15.516Z,42.51
2023-04-25T12:10:44.215Z,42.69
2023-04-25T12:13:27.810Z,42.58
2023-04-25T12:15:57.748Z,42.78
2023-04-25T12:18:28.951Z,43.26
2023-04-25T12:20:56.101Z,43.67
2023-04-25T12:23:29.743Z,43.86
2023-04-25T12:25:56.934Z,43.82
2023-04-25T12:28:25.307Z,44.17
2023-04-25T12:31:07.892Z,44.81
2023-04-25T12:33:38.717Z,45.88
2023-04-25T12:36:10.369Z,46.60
2023-04-25T12:38:41.785Z,47.46
2023-04-25T12:41:09.136Z,47.97
2023-04-25T12:43:36.328Z,48.43
2023-04-25T12:46:03.035Z,48.86
2023-04-25T12:48:29.713Z,48.99
2023-04-25T12:50:56.483Z,49.14
2023-04-25T12:53:25.377Z,49.66
2023-04-25T12:55:52.423Z,49.81
2023-04-25T12:58:20.173Z,49.61
2023-04-25T13:00:47.359Z,49.69
2023-04-25T13:03:14.360Z,49.67
2023-04-25T13:05:41.354Z,49.54
2023-04-25T13:08:08.493Z,49.55
2023-04-25T13:10:35.196Z,49.69
2023-04-25T13:13:02.381Z,50.35
2023-04-25T13:15:29.568Z,50.58
2023-04-25T13:17:57.221Z,51.00
2023-04-25T13:20:24.135Z,51.65
2023-04-25T13:22:50.954Z,52.23
2023-04-25T13:25:17.739Z,52.42
2023-04-25T13:27:45.843Z,52.62
2023-04-25T13:30:13.101Z,53.12
2023-04-25T13:32:40.652Z,53.52
2023-04-25T13:35:10.778Z,54.06
2023-04-25T13:37:38.398Z,54.24
2023-04-25T13:40:09.962Z,54.78
2023-04-25T13:42:37.834Z,55.52
2023-04-25T13:45:04.700Z,56.45
2023-04-25T13:47:31.708Z,56.78
2023-04-25T13:49:58.711Z,56.85
2023-04-25T13:52:25.444Z,56.94
2023-04-25T13:54:52.283Z,56.71
2023-04-25T13:57:19.685Z,56.71
2023-04-25T13:59:47.500Z,56.77
2023-04-25T14:02:14.456Z,56.45
2023-04-25T14:04:41.976Z,56.49
2023-04-25T14:07:09.461Z,56.67
2023-04-25T14:09:36.319Z,56.81
2023-04-25T14:12:03.232Z,57.42
2023-04-25T14:14:29.993Z,58.25
2023-04-25T14:16:58.093Z,59.03
2023-04-25T14:19:25.797Z,59.89
2023-04-25T14:21:52.432Z,60.69
2023-04-25T14:24:19.186Z,60.91
2023-04-25T14:26:46.104Z,61.43
2023-04-25T14:29:13.166Z,61.20
2023-04-25T14:31:41.495Z,61.41
2023-04-25T14:34:09.064Z,60.84
2023-04-25T14:36:37.467Z,60.20
2023-04-25T14:39:06.304Z,59.90
2023-04-25T14:41:33.345Z,59.84
2023-04-25T14:44:00.060Z,60.06
2023-04-25T14:46:27.680Z,60.19
2023-04-25T14:48:56.875Z,60.28
2023-04-25T14:51:23.709Z,59.88
2023-04-25T14:53:52.034Z,60.04
2023-04-25T14:56:19.813Z,60.37
2023-04-25T15:01:14.083Z,60.58
2023-04-25T15:03:48.607Z,60.80
2023-04-25T15:06:15.588Z,60.94
2023-04-25T15:08:42.225Z,61.08
2023-04-25T15:11:09.129Z,61.09
2023-04-25T15:13:36.004Z,61.09
2023-04-25T15:16:02.793Z,61.35
2023-04-25T15:18:29.469Z,61.50
2023-04-25T15:20:56.170Z,62.04
2023-04-25T15:23:23.055Z,62.18
2023-04-25T15:25:51.626Z,62.52
2023-04-25T15:28:18.373Z,62.78
2023-04-25T15:30:45.750Z,62.89
2023-04-25T15:33:12.537Z,62.99
2023-04-25T15:35:39.227Z,63.01
2023-04-25T15:38:06.615Z,63.11
2023-04-25T15:40:33.344Z,63.43
2023-04-25T15:43:00.591Z,63.74
2023-04-25T15:45:27.395Z,63.77
2023-04-25T15:47:57.386Z,63.49
2023-04-25T15:50:24.960Z,63.42
2023-04-25T15:52:52.187Z,63.15
2023-04-25T15:55:21.853Z,63.13
2023-04-25T15:57:51.223Z,62.94
2023-04-25T16:00:19.551Z,62.52
2023-04-25T16:02:48.647Z,62.22
2023-04-25T16:05:15.831Z,62.22
2023-04-25T16:07:44.026Z,62.05
2023-04-25T16:10:11.820Z,61.90
2023-04-25T16:12:42.093Z,61.58
2023-04-25T16:15:09.394Z,61.73
2023-04-25T16:17:36.475Z,61.80
2023-04-25T16:20:09.905Z,62.16
2023-04-25T16:22:38.892Z,62.36
2023-04-25T16:25:06.291Z,62.98
2023-04-25T16:27:34.790Z,63.15
2023-04-25T16:30:02.990Z,63.53
2023-04-25T16:32:29.857Z,63.63
2023-04-25T16:34:58.665Z,63.91
2023-04-25T16:37:26.200Z,64.05
2023-04-25T16:39:53.046Z,64.15
2023-04-25T16:42:19.853Z,64.27
2023-04-25T16:44:46.880Z,64.48
2023-04-25T16:47:16.871Z,64.68
2023-04-25T16:49:45.825Z,65.03
2023-04-25T16:52:13.146Z,65.34
2023-04-25T16:54:40.142Z,65.63
2023-04-25T16:57:11.021Z,65.93
2023-04-25T16:59:39.355Z,65.97
2023-04-25T17:02:08.473Z,66.22
2023-04-25T17:04:41.985Z,66.67
2023-04-25T17:07:09.186Z,67.10
2023-04-25T17:09:36.379Z,67.07
2023-04-25T17:12:10.884Z,67.60
2023-04-25T17:14:37.598Z,67.88
2023-04-25T17:17:04.556Z,68.02
2023-04-25T17:19:39.299Z,68.10
2023-04-25T17:22:06.598Z,68.25
2023-04-25T17:24:33.265Z,68.31
2023-04-25T17:27:00.156Z,68.26
2023-04-25T17:29:27.872Z,68.53
2023-04-25T17:31:54.617Z,68.60
2023-04-25T17:34:23.283Z,68.63
2023-04-25T17:36:50.185Z,68.91
2023-04-25T17:39:23.247Z,68.79
2023-04-25T17:41:50.112Z,68.95
2023-04-25T17:44:16.887Z,68.89
2023-04-25T17:46:43.798Z,69.07
2023-04-25T17:49:11.844Z,69.22
2023-04-25T17:51:38.632Z,69.09
2023-04-25T17:54:05.360Z,69.12
2023-04-25T17:56:34.310Z,69.27
2023-04-25T17:59:01.797Z,69.22
2023-04-25T18:01:30.991Z,69.15
2023-04-25T18:03:57.921Z,69.25
2023-04-25T18:06:24.816Z,69.37
2023-04-25T18:08:53.075Z,69.41
2023-04-25T18:11:20.151Z,69.55
2023-04-25T18:13:47.062Z,69.63
2023-04-25T18:16:16.009Z,69.75
2023-04-25T18:18:52.927Z,69.69
2023-04-25T18:21:20.347Z,69.72
2023-04-25T18:23:47.375Z,69.58
2023-04-25T18:26:14.599Z,70.12
2023-04-25T18:28:41.560Z,70.24
2023-04-25T18:31:09.555Z,70.48
2023-04-25T18:33:36.602Z,70.68
2023-04-25T18:36:03.321Z,70.78
2023-04-25T18:41:10.721Z,70.99
2023-04-25T18:43:46.870Z,71.19
2023-04-25T18:46:13.628Z,71.13
2023-04-25T18:48:42.694Z,71.33
2023-04-25T18:51:09.598Z,71.20
2023-04-25T18:53:37.466Z,71.13
2023-04-25T18:56:04.696Z,71.18
2023-04-25T18:58:31.651Z,71.42
2023-04-25T19:00:58.334Z,71.55
2023-04-25T19:03:25.377Z,71.66
2023-04-25T19:05:52.403Z,71.62
2023-04-25T19:08:19.249Z,71.50
2023-04-25T19:10:46.430Z,71.90
2023-04-25T19:13:13.754Z,72.11
2023-04-25T19:15:40.418Z,72.31
2023-04-25T19:18:07.117Z,72.24
2023-04-25T19:20:34.097Z,72.46
2023-04-25T19:23:01.099Z,72.27
2023-04-25T19:25:27.963Z,72.27
2023-04-25T19:27:54.718Z,72.45
2023-04-25T19:30:21.391Z,72.47
2023-04-25T19:32:48.119Z,72.77
2023-04-25T19:35:15.017Z,73.01
2023-04-25T19:37:47.052Z,73.42
2023-04-25T19:40:20.222Z,73.84
2023-04-25T19:42:47.355Z,74.12
2023-04-25T19:45:14.023Z,74.70
2023-04-25T19:47:42.053Z,74.99
2023-04-25T19:50:10.117Z,75.04
2023-04-25T19:52:38.002Z,75.12
2023-04-25T19:55:05.367Z,75.05
2023-04-25T19:57:37.826Z,75.31
2023-04-25T20:00:08.959Z,75.08
2023-04-25T20:02:35.705Z,75.06
2023-04-25T20:05:04.827Z,74.89
2023-04-25T20:07:31.555Z,74.99
2023-04-25T20:09:58.248Z,74.99
2023-04-25T20:12:24.994Z,75.08
2023-04-25T20:14:51.942Z,75.14
2023-04-25T20:17:18.606Z,75.28
2023-04-25T20:19:45.227Z,75.01
2023-04-25T20:22:12.231Z,74.90
2023-04-25T20:24:39.593Z,75.03
2023-04-25T20:27:07.404Z,74.96
2023-04-25T20:29:34.031Z,74.94
2023-04-25T20:32:02.709Z,75.03
2023-04-25T20:34:31.659Z,74.87
2023-04-25T20:36:58.329Z,74.79
2023-04-25T20:39:25.141Z,74.78
2023-04-25T20:41:52.666Z,74.99
2023-04-25T20:44:23.612Z,74.92
2023-04-25T20:46:51.676Z,75.20
2023-04-25T20:49:23.673Z,74.99
2023-04-25T20:51:50.411Z,75.27
2023-04-25T20:54:17.464Z,75.37
2023-04-25T20:56:44.863Z,75.44
2023-04-25T20:59:12.035Z,75.38
2023-04-25T21:01:38.716Z,75.34
2023-04-25T21:04:06.823Z,75.30
2023-04-25T21:06:34.664Z,75.45
2023-04-25T21:09:01.284Z,75.37
2023-04-25T21:11:28.096Z,75.45
2023-04-25T21:13:54.888Z,75.33
2023-04-25T21:16:21.550Z,75.45
2023-04-25T21:18:48.599Z,75.29
2023-04-25T21:21:15.341Z,75.53
2023-04-25T21:23:42.438Z,75.45
2023-04-25T21:26:09.188Z,75.57
2023-04-25T21:28:35.886Z,75.62
2023-04-25T21:31:03.225Z,75.70
2023-04-25T21:33:30.370Z,76.16
2023-04-25T21:35:57.004Z,76.38
2023-04-25T21:38:23.687Z,76.48
2023-04-25T21:40:50.464Z,76.36
2023-04-25T21:43:17.162Z,76.34
2023-04-25T21:46:06.339Z,76.65
2023-04-25T21:48:30.822Z,76.62
2023-04-25T21:50:57.570Z,76.58
2023-04-25T21:53:26.394Z,76.60
2023-04-25T21:55:53.481Z,76.83
2023-04-25T21:58:20.115Z,76.54
2023-04-25T22:00:46.833Z,76.45
2023-04-25T22:03:16.472Z,76.38
2023-04-25T22:05:44.326Z,76.36
2023-04-25T22:08:11.044Z,76.22
2023-04-25T22:10:40.102Z,76.07
2023-04-25T22:13:06.755Z,76.03
2023-04-25T22:15:33.381Z,76.18
2023-04-25T22:18:00.363Z,76.22
2023-04-25T22:20:28.055Z,76.26
2023-04-25T22:22:55.754Z,76.46
2023-04-25T22:25:26.794Z,76.55
2023-04-25T22:27:53.461Z,76.46
2023-04-25T22:30:20.227Z,76.46
2023-04-25T22:32:47.301Z,76.55
2023-04-25T22:35:14.012Z,76.43
2023-04-25T22:37:41.769Z,76.60
2023-04-25T22:40:11.828Z,76.75
2023-04-25T22:42:43.319Z,76.87
2023-04-25T22:45:11.026Z,76.76
2023-04-25T22:47:38.759Z,76.86
2023-04-25T22:50:13.166Z,76.95
2023-04-25T22:52:40.650Z,77.08
2023-04-25T22:55:07.531Z,77.18
2023-04-25T22:57:37.047Z,77.10
2023-04-25T23:00:09.769Z,77.14
2023-04-25T23:02:37.215Z,77.25
2023-04-25T23:05:06.997Z,77.18
2023-04-25T23:07:35.219Z,76.95
2023-04-25T23:10:02.087Z,77.11
2023-04-25T23:12:28.681Z,77.13
2023-04-25T23:14:55.644Z,77.46
2023-04-25T23:17:22.485Z,77.42
2023-04-25T23:19:49.107Z,77.50
2023-04-25T23:22:16.001Z,77.67
2023-04-25T23:24:42.608Z,77.69
2023-04-25T23:27:09.498Z,77.54
2023-04-25T23:29:36.528Z,77.30
2023-04-25T23:32:03.319Z,77.27
2023-04-25T23:34:31.651Z,77.21
2023-04-25T23:37:00.979Z,77.19
2023-04-25T23:39:28.223Z,77.17
2023-04-25T23:41:55.095Z,77.04
2023-04-25T23:44:23.601Z,77.15
2023-04-25T23:46:50.451Z,76.91
2023-04-25T23:49:17.114Z,76.81
2023-04-25T23:51:43.809Z,76.81
2023-04-25T23:54:10.494Z,76.94
2023-04-25T23:56:37.133Z,76.94
2023-04-25T23:59:04.177Z,77.13
